createdAt,value
2022-11-12T00:00:27.939Z,10.20
2022-11-12T00:03:14.181Z,10.20
2022-11-12T00:06:00.274Z,10.20
2022-11-12T00:08:46.205Z,10.00
2022-11-12T00:11:32.222Z,9.90
2022-11-12T00:14:18.292Z,9.80
2022-11-12T00:17:04.607Z,9.70
2022-11-12T00:19:51.296Z,9.60
2022-11-12T00:22:37.165Z,9.60
2022-11-12T00:25:23.447Z,9.70
2022-11-12T00:28:10.755Z,9.80
2022-11-12T00:30:56.887Z,9.80
2022-11-12T00:33:43.593Z,9.70
2022-11-12T00:36:29.788Z,9.70
2022-11-12T00:39:15.774Z,9.50
2022-11-12T00:42:01.817Z,9.50
2022-11-12T00:44:49.988Z,9.40
2022-11-12T00:47:36.049Z,9.40
2022-11-12T00:50:22.077Z,9.50
2022-11-12T00:53:08.245Z,9.40
2022-11-12T00:55:54.234Z,9.50
2022-11-12T00:58:40.634Z,9.60
2022-11-12T01:01:27.436Z,9.70
2022-11-12T01:04:13.394Z,9.60
2022-11-12T01:06:59.593Z,9.40
2022-11-12T01:09:45.518Z,9.40
2022-11-12T01:12:31.981Z,9.50
2022-11-12T01:15:18.077Z,9.30
2022-11-12T01:18:04.074Z,9.20
2022-11-12T01:20:50.114Z,9.30
2022-11-12T01:23:37.433Z,9.40
2022-11-12T01:26:23.616Z,9.40
2022-11-12T01:29:09.968Z,9.30
2022-11-12T01:31:55.716Z,9.40
2022-11-12T01:34:41.646Z,9.30
2022-11-12T01:37:27.660Z,9.30
2022-11-12T01:40:13.671Z,9.20
2022-11-12T01:42:59.795Z,9.20
2022-11-12T01:45:49.825Z,9.10
2022-11-12T01:48:39.650Z,9.10
2022-11-12T01:51:28.334Z,9.20
2022-11-12T01:54:16.786Z,9.10
2022-11-12T01:57:02.915Z,9.10
2022-11-12T01:59:50.442Z,9.00
2022-11-12T02:02:37.019Z,9.00
2022-11-12T02:05:23.758Z,9.20
2022-11-12T02:08:11.275Z,9.30
2022-11-12T02:10:57.433Z,9.10
2022-11-12T02:14:01.312Z,9.10
2022-11-12T02:16:48.569Z,8.90
2022-11-12T02:19:37.017Z,9.00
2022-11-12T02:22:22.837Z,9.10
2022-11-12T02:25:11.832Z,9.20
2022-11-12T02:27:59.256Z,9.30
2022-11-12T02:30:49.645Z,9.40
2022-11-12T02:33:35.438Z,9.50
2022-11-12T02:36:21.450Z,9.30
2022-11-12T02:39:07.565Z,9.30
2022-11-12T02:41:53.468Z,9.20
2022-11-12T02:44:39.623Z,9.00
2022-11-12T02:47:25.638Z,9.00
2022-11-12T02:50:12.778Z,8.90
2022-11-12T02:52:58.887Z,9.00
2022-11-12T02:55:45.050Z,8.90
2022-11-12T02:58:31.298Z,8.90
2022-11-12T03:01:17.345Z,8.70
2022-11-12T03:04:03.380Z,8.80
2022-11-12T03:06:49.390Z,8.80
2022-11-12T03:09:35.544Z,8.70
2022-11-12T03:12:21.501Z,8.50
2022-11-12T03:15:07.514Z,8.50
2022-11-12T03:17:53.760Z,8.50
2022-11-12T03:20:39.568Z,8.40
2022-11-12T03:23:26.678Z,8.30
2022-11-12T03:26:12.483Z,8.20
2022-11-12T03:28:58.609Z,8.20
2022-11-12T03:31:45.007Z,8.20
2022-11-12T03:34:31.058Z,8.30
2022-11-12T03:37:17.262Z,8.20
2022-11-12T03:40:03.780Z,8.10
2022-11-12T03:42:50.377Z,8.20
2022-11-12T03:45:36.408Z,8.20
2022-11-12T03:48:22.514Z,8.10
2022-11-12T03:51:08.717Z,8.00
2022-11-12T03:53:54.832Z,8.00
2022-11-12T03:56:40.846Z,7.90
2022-11-12T03:59:26.807Z,7.90
2022-11-12T04:02:14.661Z,7.90
2022-11-12T04:05:19.300Z,7.90
2022-11-12T04:08:31.379Z,7.90
2022-11-12T04:11:17.480Z,8.00
2022-11-12T04:14:03.919Z,7.80
2022-11-12T04:17:08.837Z,7.90
2022-11-12T04:20:13.140Z,8.00
2022-11-12T04:22:59.106Z,8.00
2022-11-12T04:26:03.694Z,8.00
2022-11-12T04:29:08.096Z,8.00
2022-11-12T04:31:54.127Z,8.00
2022-11-12T04:34:39.777Z,7.90
2022-11-12T04:37:26.902Z,7.90
2022-11-12T04:40:43.936Z,8.00
2022-11-12T04:43:48.301Z,8.10
2022-11-12T04:46:34.013Z,8.00
2022-11-12T04:49:20.255Z,8.00
2022-11-12T04:52:06.249Z,8.00
2022-11-12T04:54:52.490Z,7.70
2022-11-12T04:57:38.880Z,7.70
2022-11-12T05:00:24.925Z,7.70
2022-11-12T05:03:11.144Z,7.70
2022-11-12T05:06:04.449Z,8.00
2022-11-12T05:08:50.212Z,8.10
2022-11-12T05:11:36.310Z,8.30
2022-11-12T05:14:22.356Z,8.40
2022-11-12T05:17:08.375Z,8.40
2022-11-12T05:19:54.432Z,8.40
2022-11-12T05:22:47.779Z,8.20
2022-11-12T05:25:36.731Z,8.10
2022-11-12T05:28:22.974Z,8.10
2022-11-12T05:31:09.090Z,8.10
2022-11-12T05:33:55.293Z,8.10
2022-11-12T05:36:41.261Z,8.00
2022-11-12T05:39:27.375Z,8.00
2022-11-12T05:42:14.287Z,8.10
2022-11-12T05:45:00.939Z,8.20
2022-11-12T05:47:47.905Z,8.20
2022-11-12T05:50:40.170Z,8.20
2022-11-12T05:53:37.855Z,8.10
2022-11-12T05:56:23.926Z,8.10
2022-11-12T05:59:10.621Z,8.10
2022-11-12T06:01:57.004Z,7.90
2022-11-12T06:04:42.913Z,7.80
2022-11-12T06:07:28.884Z,8.10
2022-11-12T06:10:20.122Z,8.10
2022-11-12T06:13:07.012Z,8.10
2022-11-12T06:15:53.764Z,8.30
2022-11-12T06:18:39.437Z,8.30
2022-11-12T06:21:27.460Z,8.50
2022-11-12T06:24:13.208Z,8.50
2022-11-12T06:26:59.107Z,8.70
2022-11-12T06:29:44.977Z,9.00
2022-11-12T06:32:30.978Z,9.30
2022-11-12T06:35:17.781Z,9.40
2022-11-12T06:38:03.964Z,9.20
2022-11-12T06:40:50.037Z,9.00
2022-11-12T06:43:36.535Z,8.90
2022-11-12T06:46:22.369Z,8.90
2022-11-12T06:49:08.524Z,8.80
2022-11-12T06:51:54.607Z,9.00
2022-11-12T06:54:40.617Z,9.00
2022-11-12T06:57:26.660Z,8.90
2022-11-12T07:00:12.627Z,8.80
2022-11-12T07:02:58.251Z,9.00
2022-11-12T07:05:44.308Z,8.90
2022-11-12T07:08:30.427Z,9.00
2022-11-12T07:11:17.170Z,9.00
2022-11-12T07:14:05.827Z,9.10
2022-11-12T07:16:51.962Z,9.00
2022-11-12T07:19:37.904Z,9.00
2022-11-12T07:22:23.970Z,9.00
2022-11-12T07:25:09.803Z,9.10
2022-11-12T07:27:55.953Z,9.10
2022-11-12T07:30:41.790Z,9.00
2022-11-12T07:33:28.765Z,9.20
2022-11-12T07:36:15.856Z,9.20
2022-11-12T07:39:01.511Z,9.30
2022-11-12T07:41:47.561Z,9.20
2022-11-12T07:44:33.733Z,9.20
2022-11-12T07:47:19.957Z,9.30
2022-11-12T07:50:06.418Z,9.30
2022-11-12T07:52:52.455Z,9.30
2022-11-12T07:55:38.715Z,9.40
2022-11-12T07:58:25.057Z,9.50
2022-11-12T08:01:25.126Z,9.60
2022-11-12T08:04:12.148Z,9.70
2022-11-12T08:06:58.413Z,9.70
2022-11-12T08:09:44.370Z,9.80
2022-11-12T08:12:30.158Z,9.80
2022-11-12T08:15:16.794Z,9.90
2022-11-12T08:18:03.053Z,10.00
2022-11-12T08:20:49.156Z,10.00
2022-11-12T08:23:35.479Z,10.00
2022-11-12T08:26:21.376Z,10.10
2022-11-12T08:29:08.960Z,10.00
2022-11-12T08:31:55.371Z,10.20
2022-11-12T08:34:43.924Z,10.20
2022-11-12T08:37:29.890Z,10.30
2022-11-12T08:40:15.985Z,10.50
2022-11-12T08:43:03.939Z,10.60
2022-11-12T08:45:50.317Z,10.50
2022-11-12T08:48:36.393Z,10.70
2022-11-12T08:51:22.378Z,10.70
2022-11-12T08:54:08.467Z,10.70
2022-11-12T08:56:54.568Z,10.70
2022-11-12T08:59:40.614Z,10.80
2022-11-12T09:02:26.703Z,11.00
2022-11-12T09:05:12.649Z,10.90
2022-11-12T09:08:09.032Z,11.00
2022-11-12T09:10:54.906Z,11.00
2022-11-12T09:13:40.897Z,11.00
2022-11-12T09:16:27.115Z,10.90
2022-11-12T09:19:13.172Z,10.80
2022-11-12T09:21:59.804Z,10.80
2022-11-12T09:24:45.593Z,10.70
2022-11-12T09:27:31.756Z,10.90
2022-11-12T09:30:17.711Z,11.20
2022-11-12T09:33:04.303Z,11.30
2022-11-12T09:35:51.144Z,11.30
2022-11-12T09:38:36.966Z,11.20
2022-11-12T09:41:25.804Z,11.10
2022-11-12T09:44:14.169Z,11.10
2022-11-12T09:47:03.015Z,11.20
2022-11-12T09:49:52.074Z,11.20
2022-11-12T09:52:39.594Z,11.40
2022-11-12T09:55:35.048Z,11.40
2022-11-12T09:58:21.097Z,11.60
2022-11-12T10:01:14.945Z,11.60
2022-11-12T10:04:03.901Z,11.60
2022-11-12T10:07:10.362Z,11.70
2022-11-12T10:10:03.162Z,11.90
2022-11-12T10:12:55.097Z,11.90
2022-11-12T10:16:03.160Z,11.90
2022-11-12T10:19:05.811Z,12.00
2022-11-12T10:21:52.065Z,12.10
2022-11-12T10:24:38.988Z,12.10
2022-11-12T10:27:28.302Z,12.30
2022-11-12T10:30:19.290Z,12.30
2022-11-12T10:33:05.371Z,12.50
2022-11-12T10:35:52.903Z,12.80
2022-11-12T10:38:39.112Z,12.90
2022-11-12T10:41:33.238Z,13.10
2022-11-12T10:44:25.677Z,13.10
2022-11-12T10:47:21.220Z,13.20
2022-11-12T10:50:16.909Z,13.40
2022-11-12T10:53:07.915Z,13.50
2022-11-12T10:55:58.353Z,13.50
2022-11-12T10:58:44.489Z,13.70
2022-11-12T11:01:35.657Z,13.60
2022-11-12T11:04:30.660Z,13.60
2022-11-12T11:07:20.419Z,13.70
2022-11-12T11:10:11.178Z,13.60
2022-11-12T11:13:09.435Z,13.60
2022-11-12T11:16:02.786Z,13.70
2022-11-12T11:18:50.902Z,13.80
2022-11-12T11:21:49.189Z,13.80
2022-11-12T11:24:41.267Z,13.80
2022-11-12T11:27:30.836Z,13.80
2022-11-12T11:30:19.087Z,13.80
2022-11-12T11:33:24.822Z,13.80
2022-11-12T11:36:20.204Z,13.90
2022-11-12T11:39:15.433Z,13.80
2022-11-12T11:42:14.182Z,13.90
2022-11-12T11:44:59.834Z,14.00
2022-11-12T11:48:02.274Z,14.00
2022-11-12T11:51:00.621Z,14.10
2022-11-12T11:54:10.772Z,14.20
2022-11-12T11:56:58.873Z,14.20
2022-11-12T12:00:11.160Z,14.30
2022-11-12T12:03:03.349Z,14.40
2022-11-12T12:06:01.437Z,14.40
2022-11-12T12:08:53.734Z,14.50
2022-11-12T12:11:42.855Z,14.50
2022-11-12T12:14:47.646Z,14.60
2022-11-12T12:17:39.794Z,14.60
2022-11-12T12:20:30.426Z,14.70
2022-11-12T12:23:25.638Z,14.60
2022-11-12T12:26:14.084Z,14.50
2022-11-12T12:29:04.481Z,14.50
2022-11-12T12:31:56.308Z,14.50
2022-11-12T12:34:45.281Z,14.40
2022-11-12T12:37:51.966Z,14.50
2022-11-12T12:40:41.769Z,14.40
2022-11-12T12:43:46.784Z,14.50
2022-11-12T12:46:37.283Z,14.50
2022-11-12T12:49:29.902Z,14.40
2022-11-12T12:52:15.712Z,14.50
2022-11-12T12:55:01.878Z,14.50
2022-11-12T12:57:48.208Z,14.60
2022-11-12T13:00:39.318Z,14.60
2022-11-12T13:03:46.975Z,14.60
2022-11-12T13:06:38.598Z,14.70
2022-11-12T13:09:26.012Z,14.60
2022-11-12T13:12:12.097Z,14.60
2022-11-12T13:15:12.425Z,14.70
2022-11-12T13:17:58.599Z,14.70
2022-11-12T13:21:07.129Z,14.50
2022-11-12T13:24:12.722Z,14.60
2022-11-12T13:26:59.471Z,14.60
2022-11-12T13:29:46.568Z,14.70
2022-11-12T13:32:33.836Z,14.80
2022-11-12T13:35:23.131Z,14.70
2022-11-12T13:38:09.560Z,14.60
2022-11-12T13:41:05.323Z,14.60
2022-11-12T13:43:51.948Z,14.60
2022-11-12T13:46:38.120Z,14.60
2022-11-12T13:49:24.389Z,14.50
2022-11-12T13:52:12.264Z,14.40
2022-11-12T13:55:01.958Z,14.30
2022-11-12T13:57:54.651Z,14.20
2022-11-12T14:00:40.802Z,14.20
2022-11-12T14:03:32.876Z,14.20
2022-11-12T14:06:25.683Z,14.10
2022-11-12T14:09:11.449Z,14.10
2022-11-12T14:11:57.531Z,14.10
2022-11-12T14:14:49.714Z,14.10
2022-11-12T14:17:41.981Z,14.10
2022-11-12T14:20:39.155Z,14.10
2022-11-12T14:23:26.068Z,14.10
2022-11-12T14:26:12.532Z,14.10
2022-11-12T14:28:58.388Z,14.00
2022-11-12T14:31:44.780Z,14.00
2022-11-12T14:34:32.556Z,14.00
2022-11-12T14:37:39.826Z,14.00
2022-11-12T14:40:30.946Z,13.90
2022-11-12T14:43:27.123Z,13.90
2022-11-12T14:46:46.312Z,13.90
2022-11-12T14:49:33.988Z,13.80
2022-11-12T14:52:24.587Z,13.80
2022-11-12T14:55:17.392Z,14.00
2022-11-12T14:58:04.360Z,14.00
2022-11-12T15:00:51.869Z,14.00
2022-11-12T15:03:37.686Z,13.80
2022-11-12T15:06:34.926Z,13.70
2022-11-12T15:09:33.584Z,13.60
2022-11-12T15:12:25.433Z,13.50
2022-11-12T15:15:19.547Z,13.30
2022-11-12T15:18:29.802Z,13.30
2022-11-12T15:21:26.244Z,13.30
2022-11-12T15:24:13.931Z,13.20
2022-11-12T15:27:02.246Z,13.20
2022-11-12T15:29:48.587Z,13.10
2022-11-12T15:32:34.946Z,13.10
2022-11-12T15:35:27.472Z,13.10
2022-11-12T15:38:16.042Z,13.00
2022-11-12T15:41:02.559Z,13.00
2022-11-12T15:43:48.742Z,13.10
2022-11-12T15:46:36.841Z,13.00
2022-11-12T15:49:23.994Z,12.90
2022-11-12T15:52:10.579Z,12.90
2022-11-12T15:54:57.515Z,12.80
2022-11-12T15:57:47.690Z,12.70
2022-11-12T16:00:36.099Z,12.70
2022-11-12T16:03:23.751Z,12.60
2022-11-12T16:06:11.851Z,12.70
2022-11-12T16:08:58.799Z,12.60
2022-11-12T16:11:46.424Z,12.60
2022-11-12T16:14:33.005Z,12.60
2022-11-12T16:17:19.566Z,12.60
2022-11-12T16:20:26.299Z,12.60
2022-11-12T16:23:12.786Z,12.50
2022-11-12T16:25:58.647Z,12.50
2022-11-12T16:28:44.939Z,12.50
2022-11-12T16:31:31.326Z,12.50
2022-11-12T16:34:17.620Z,12.50
2022-11-12T16:37:03.833Z,12.40
2022-11-12T16:39:50.117Z,12.50
2022-11-12T16:42:36.076Z,12.40
2022-11-12T16:45:23.459Z,12.40
2022-11-12T16:48:18.066Z,12.40
2022-11-12T16:51:03.978Z,12.30
2022-11-12T16:53:50.318Z,12.30
2022-11-12T16:56:36.891Z,12.30
2022-11-12T16:59:23.123Z,12.30
2022-11-12T17:02:15.591Z,12.30
2022-11-12T17:05:02.457Z,12.30
2022-11-12T17:07:49.372Z,12.30
2022-11-12T17:10:35.232Z,12.20
2022-11-12T17:13:21.522Z,12.20
2022-11-12T17:16:08.085Z,12.10
2022-11-12T17:18:55.102Z,12.20
2022-11-12T17:21:43.330Z,12.10
2022-11-12T17:24:29.453Z,12.20
2022-11-12T17:27:15.257Z,12.10
2022-11-12T17:30:01.377Z,12.10
2022-11-12T17:32:49.037Z,12.10
2022-11-12T17:35:34.890Z,12.00
2022-11-12T17:38:20.934Z,12.00
2022-11-12T17:41:07.463Z,12.00
2022-11-12T17:43:57.071Z,12.00
2022-11-12T17:46:43.780Z,12.00
2022-11-12T17:49:29.666Z,12.00
2022-11-12T17:52:15.591Z,11.90
2022-11-12T17:55:01.721Z,11.80
2022-11-12T17:57:48.756Z,11.80
2022-11-12T18:00:35.671Z,11.80
2022-11-12T18:03:21.826Z,11.90
2022-11-12T18:06:09.831Z,11.90
2022-11-12T18:08:56.963Z,11.90
2022-11-12T18:11:47.836Z,11.90
2022-11-12T18:14:34.002Z,12.00
2022-11-12T18:17:20.216Z,12.00
2022-11-12T18:20:06.485Z,12.00
2022-11-12T18:22:52.253Z,12.30
2022-11-12T18:25:39.553Z,12.20
2022-11-12T18:28:26.071Z,12.30
2022-11-12T18:31:12.556Z,12.30
2022-11-12T18:33:59.336Z,12.30
2022-11-12T18:36:45.448Z,12.20
2022-11-12T18:39:32.459Z,12.20
2022-11-12T18:42:18.682Z,12.10
2022-11-12T18:45:05.042Z,12.00
2022-11-12T18:47:51.963Z,12.00
2022-11-12T18:50:38.551Z,12.00
2022-11-12T18:53:26.021Z,12.20
2022-11-12T18:56:16.677Z,12.20
2022-11-12T18:59:05.291Z,12.20
2022-11-12T19:01:52.413Z,12.20
2022-11-12T19:04:45.022Z,12.00
2022-11-12T19:07:31.754Z,11.80
2022-11-12T19:10:19.933Z,11.70
2022-11-12T19:13:06.781Z,11.60
2022-11-12T19:15:53.082Z,11.60
2022-11-12T19:18:39.722Z,11.70
2022-11-12T19:21:26.670Z,11.60
2022-11-12T19:24:12.679Z,11.70
2022-11-12T19:26:58.437Z,11.90
2022-11-12T19:29:44.591Z,11.90
2022-11-12T19:32:30.654Z,11.80
2022-11-12T19:35:16.781Z,11.80
2022-11-12T19:38:03.027Z,11.70
2022-11-12T19:40:49.053Z,11.70
2022-11-12T19:43:35.682Z,11.60
2022-11-12T19:46:22.049Z,11.40
2022-11-12T19:49:07.984Z,11.60
2022-11-12T19:51:55.706Z,11.50
2022-11-12T19:54:42.114Z,11.60
2022-11-12T19:57:29.463Z,11.70
2022-11-12T20:00:15.739Z,11.70
2022-11-12T20:03:02.251Z,11.60
2022-11-12T20:05:47.991Z,11.60
2022-11-12T20:08:34.399Z,11.50
2022-11-12T20:11:20.340Z,11.40
2022-11-12T20:14:06.541Z,11.40
2022-11-12T20:16:52.670Z,11.40
2022-11-12T20:19:38.812Z,11.40
2022-11-12T20:22:30.731Z,11.60
2022-11-12T20:25:17.633Z,11.60
2022-11-12T20:28:03.948Z,11.40
2022-11-12T20:30:49.999Z,11.30
2022-11-12T20:33:41.839Z,11.30
2022-11-12T20:36:28.466Z,11.30
2022-11-12T20:39:14.478Z,11.20
2022-11-12T20:42:01.224Z,11.20
2022-11-12T20:44:47.256Z,11.20
2022-11-12T20:47:33.343Z,11.20
2022-11-12T20:50:19.428Z,11.30
2022-11-12T20:53:05.837Z,11.40
2022-11-12T20:55:51.948Z,11.40
2022-11-12T20:58:38.545Z,11.40
2022-11-12T21:01:25.205Z,11.40
2022-11-12T21:04:11.444Z,11.50
2022-11-12T21:07:02.298Z,11.60
2022-11-12T21:09:50.709Z,11.60
2022-11-12T21:12:37.688Z,11.50
2022-11-12T21:15:23.424Z,11.50
2022-11-12T21:18:09.388Z,11.60
2022-11-12T21:21:02.243Z,11.60
2022-11-12T21:23:50.463Z,11.60
2022-11-12T21:26:36.616Z,11.60
2022-11-12T21:29:22.544Z,11.50
2022-11-12T21:32:08.583Z,11.50
2022-11-12T21:34:56.230Z,11.50
2022-11-12T21:37:41.865Z,11.50
2022-11-12T21:40:27.968Z,11.50
2022-11-12T21:43:14.502Z,11.50
2022-11-12T21:46:01.188Z,11.70
2022-11-12T21:48:51.022Z,11.90
2022-11-12T21:51:39.548Z,11.90
2022-11-12T21:54:25.877Z,11.90
2022-11-12T21:57:17.626Z,12.00
2022-11-12T22:00:39.031Z,11.90
2022-11-12T22:03:12.039Z,11.80
2022-11-12T22:05:59.206Z,11.80
2022-11-12T22:08:50.744Z,11.70
2022-11-12T22:11:36.793Z,11.60
2022-11-12T22:14:22.870Z,11.50
2022-11-12T22:17:09.404Z,11.50
2022-11-12T22:19:55.063Z,11.50
2022-11-12T22:22:41.183Z,11.50
2022-11-12T22:25:27.375Z,11.60
2022-11-12T22:28:13.461Z,11.60
2022-11-12T22:31:13.447Z,11.60
2022-11-12T22:34:00.375Z,11.60
2022-11-12T22:36:46.811Z,11.50
2022-11-12T22:39:33.144Z,11.50
2022-11-12T22:42:19.094Z,11.40
2022-11-12T22:45:05.405Z,11.60
2022-11-12T22:47:51.600Z,11.60
2022-11-12T22:50:37.824Z,11.60
2022-11-12T22:53:24.128Z,11.70
2022-11-12T22:56:12.290Z,11.60
2022-11-12T22:58:58.051Z,11.50
2022-11-12T23:01:44.248Z,11.50
2022-11-12T23:04:30.193Z,11.50
2022-11-12T23:07:16.214Z,11.50
2022-11-12T23:10:02.182Z,11.50
2022-11-12T23:12:48.306Z,11.50
2022-11-12T23:15:34.295Z,11.50
2022-11-12T23:18:20.414Z,11.50
2022-11-12T23:21:14.215Z,11.60
2022-11-12T23:24:00.310Z,11.70
2022-11-12T23:26:46.138Z,11.80
2022-11-12T23:29:32.062Z,11.90
2022-11-12T23:32:18.082Z,12.00
2022-11-12T23:35:04.319Z,12.00
2022-11-12T23:37:50.275Z,12.00
2022-11-12T23:40:36.370Z,12.10
2022-11-12T23:43:22.466Z,12.20
2022-11-12T23:46:08.462Z,12.40
2022-11-12T23:48:54.491Z,12.60
2022-11-12T23:51:40.568Z,12.70
2022-11-12T23:54:26.472Z,12.80
2022-11-12T23:57:12.968Z,12.80
2022-11-12T23:59:59.190Z,12.80
